sensor_id;sensor_type;location;lat;lon;timestamp;P1;durP1;ratioP1;P2;durP2;ratioP2
2610;SDS011;5612;51.134;17.058;2022-07-19T00:00:46;5.87;;;5.23;;
2610;SDS011;5612;51.134;17.058;2022-07-19T00:03:17;5.60;;;5.00;;
2610;SDS011;5612;51.134;17.058;2022-07-19T00:05:49;6.10;;;5.50;;
2610;SDS011;5612;51.134;17.058;2022-07-19T00:08:19;5.50;;;5.00;;
2610;SDS011;5612;51.134;17.058;2022-07-19T00:10:48;6.50;;;5.90;;
2610;SDS011;5612;51.134;17.058;2022-07-19T00:13:22;5.70;;;5.03;;
2610;SDS011;5612;51.134;17.058;2022-07-19T00:15:54;5.03;;;4.53;;
2610;SDS011;5612;51.134;17.058;2022-07-19T00:18:24;5.60;;;4.93;;
2610;SDS011;5612;51.134;17.058;2022-07-19T00:20:53;5.47;;;4.83;;
2610;SDS011;5612;51.134;17.058;2022-07-19T00:23:23;5.33;;;4.93;;
2610;SDS011;5612;51.134;17.058;2022-07-19T00:25:53;5.87;;;4.67;;
2610;SDS011;5612;51.134;17.058;2022-07-19T00:28:23;5.43;;;4.67;;
2610;SDS011;5612;51.134;17.058;2022-07-19T00:30:52;6.80;;;5.40;;
2610;SDS011;5612;51.134;17.058;2022-07-19T00:33:23;5.50;;;5.00;;
2610;SDS011;5612;51.134;17.058;2022-07-19T00:35:53;6.67;;;5.90;;
2610;SDS011;5612;51.134;17.058;2022-07-19T00:38:22;5.03;;;4.63;;
2610;SDS011;5612;51.134;17.058;2022-07-19T00:40:51;5.97;;;5.37;;
2610;SDS011;5612;51.134;17.058;2022-07-19T00:43:21;5.83;;;5.17;;
2610;SDS011;5612;51.134;17.058;2022-07-19T00:45:51;5.80;;;5.27;;
2610;SDS011;5612;51.134;17.058;2022-07-19T00:48:22;5.80;;;5.20;;
2610;SDS011;5612;51.134;17.058;2022-07-19T00:50:52;11.43;;;4.93;;
2610;SDS011;5612;51.134;17.058;2022-07-19T00:53:21;8.30;;;4.60;;
2610;SDS011;5612;51.134;17.058;2022-07-19T00:55:52;7.80;;;4.70;;
2610;SDS011;5612;51.134;17.058;2022-07-19T00:58:25;5.30;;;4.80;;
2610;SDS011;5612;51.134;17.058;2022-07-19T01:00:55;6.10;;;5.10;;
2610;SDS011;5612;51.134;17.058;2022-07-19T01:03:27;6.43;;;5.10;;
2610;SDS011;5612;51.134;17.058;2022-07-19T01:05:56;6.27;;;5.67;;
2610;SDS011;5612;51.134;17.058;2022-07-19T01:08:25;6.43;;;5.70;;
2610;SDS011;5612;51.134;17.058;2022-07-19T01:10:55;6.90;;;6.20;;
2610;SDS011;5612;51.134;17.058;2022-07-19T01:13:24;7.70;;;5.13;;
2610;SDS011;5612;51.134;17.058;2022-07-19T01:15:54;4.63;;;4.33;;
2610;SDS011;5612;51.134;17.058;2022-07-19T01:18:23;6.00;;;4.77;;
2610;SDS011;5612;51.134;17.058;2022-07-19T01:20:54;5.80;;;5.17;;
2610;SDS011;5612;51.134;17.058;2022-07-19T01:23:28;5.67;;;4.67;;
2610;SDS011;5612;51.134;17.058;2022-07-19T01:25:58;10.83;;;4.83;;
2610;SDS011;5612;51.134;17.058;2022-07-19T01:28:27;10.20;;;5.17;;
2610;SDS011;5612;51.134;17.058;2022-07-19T01:30:56;8.13;;;5.23;;
2610;SDS011;5612;51.134;17.058;2022-07-19T01:33:26;7.10;;;4.70;;
2610;SDS011;5612;51.134;17.058;2022-07-19T01:35:55;7.50;;;5.53;;
2610;SDS011;5612;51.134;17.058;2022-07-19T01:38:24;6.03;;;5.03;;
2610;SDS011;5612;51.134;17.058;2022-07-19T01:40:56;9.53;;;5.40;;
2610;SDS011;5612;51.134;17.058;2022-07-19T01:43:26;5.20;;;4.70;;
2610;SDS011;5612;51.134;17.058;2022-07-19T01:45:56;6.63;;;4.60;;
2610;SDS011;5612;51.134;17.058;2022-07-19T01:48:25;9.63;;;5.10;;
2610;SDS011;5612;51.134;17.058;2022-07-19T01:50:55;5.37;;;4.90;;
2610;SDS011;5612;51.134;17.058;2022-07-19T01:53:25;6.47;;;5.00;;
2610;SDS011;5612;51.134;17.058;2022-07-19T01:55:56;6.27;;;5.70;;
2610;SDS011;5612;51.134;17.058;2022-07-19T01:58:25;8.80;;;5.70;;
2610;SDS011;5612;51.134;17.058;2022-07-19T02:00:54;6.87;;;5.67;;
2610;SDS011;5612;51.134;17.058;2022-07-19T02:03:24;6.33;;;5.73;;
2610;SDS011;5612;51.134;17.058;2022-07-19T02:05:53;8.50;;;6.03;;
2610;SDS011;5612;51.134;17.058;2022-07-19T02:08:23;7.30;;;5.50;;
2610;SDS011;5612;51.134;17.058;2022-07-19T02:10:52;5.90;;;5.30;;
2610;SDS011;5612;51.134;17.058;2022-07-19T02:13:23;6.57;;;5.93;;
2610;SDS011;5612;51.134;17.058;2022-07-19T02:15:52;9.57;;;7.63;;
2610;SDS011;5612;51.134;17.058;2022-07-19T02:18:22;11.17;;;8.87;;
2610;SDS011;5612;51.134;17.058;2022-07-19T02:20:51;8.10;;;6.93;;
2610;SDS011;5612;51.134;17.058;2022-07-19T02:23:20;9.60;;;6.67;;
2610;SDS011;5612;51.134;17.058;2022-07-19T02:25:49;7.20;;;6.03;;
2610;SDS011;5612;51.134;17.058;2022-07-19T02:28:18;8.53;;;5.93;;
2610;SDS011;5612;51.134;17.058;2022-07-19T02:30:49;6.90;;;5.83;;
2610;SDS011;5612;51.134;17.058;2022-07-19T02:33:19;13.10;;;6.33;;
2610;SDS011;5612;51.134;17.058;2022-07-19T02:35:48;8.40;;;6.83;;
2610;SDS011;5612;51.134;17.058;2022-07-19T02:38:17;7.97;;;7.17;;
2610;SDS011;5612;51.134;17.058;2022-07-19T02:40:47;7.43;;;6.57;;
2610;SDS011;5612;51.134;17.058;2022-07-19T02:43:17;6.70;;;6.00;;
2610;SDS011;5612;51.134;17.058;2022-07-19T02:45:46;7.00;;;6.40;;
2610;SDS011;5612;51.134;17.058;2022-07-19T02:48:17;6.93;;;6.20;;
2610;SDS011;5612;51.134;17.058;2022-07-19T02:50:47;7.60;;;6.43;;
2610;SDS011;5612;51.134;17.058;2022-07-19T02:53:16;8.33;;;7.30;;
2610;SDS011;5612;51.134;17.058;2022-07-19T02:55:45;8.10;;;7.17;;
2610;SDS011;5612;51.134;17.058;2022-07-19T02:58:14;10.37;;;7.27;;
2610;SDS011;5612;51.134;17.058;2022-07-19T03:00:44;6.50;;;5.77;;
2610;SDS011;5612;51.134;17.058;2022-07-19T03:03:14;10.33;;;5.80;;
2610;SDS011;5612;51.134;17.058;2022-07-19T03:06:01;8.70;;;6.70;;
2610;SDS011;5612;51.134;17.058;2022-07-19T03:08:31;7.70;;;6.90;;
2610;SDS011;5612;51.134;17.058;2022-07-19T03:11:00;8.37;;;7.67;;
2610;SDS011;5612;51.134;17.058;2022-07-19T03:13:29;8.47;;;7.33;;
2610;SDS011;5612;51.134;17.058;2022-07-19T03:15:59;9.23;;;8.33;;
2610;SDS011;5612;51.134;17.058;2022-07-19T03:18:30;9.93;;;8.07;;
2610;SDS011;5612;51.134;17.058;2022-07-19T03:20:59;8.10;;;7.30;;
2610;SDS011;5612;51.134;17.058;2022-07-19T03:23:31;9.20;;;7.67;;
2610;SDS011;5612;51.134;17.058;2022-07-19T03:26:01;9.40;;;6.53;;
2610;SDS011;5612;51.134;17.058;2022-07-19T03:28:31;8.43;;;7.73;;
2610;SDS011;5612;51.134;17.058;2022-07-19T03:31:00;7.90;;;7.10;;
2610;SDS011;5612;51.134;17.058;2022-07-19T03:33:31;7.90;;;7.13;;
2610;SDS011;5612;51.134;17.058;2022-07-19T03:36:00;11.53;;;7.03;;
2610;SDS011;5612;51.134;17.058;2022-07-19T03:38:29;14.90;;;6.90;;
2610;SDS011;5612;51.134;17.058;2022-07-19T03:40:58;7.73;;;6.97;;
2610;SDS011;5612;51.134;17.058;2022-07-19T03:43:27;9.00;;;8.10;;
2610;SDS011;5612;51.134;17.058;2022-07-19T03:45:56;12.30;;;7.50;;
2610;SDS011;5612;51.134;17.058;2022-07-19T03:48:27;10.00;;;7.07;;
2610;SDS011;5612;51.134;17.058;2022-07-19T03:50:58;7.87;;;7.10;;
2610;SDS011;5612;51.134;17.058;2022-07-19T03:53:26;9.87;;;7.60;;
2610;SDS011;5612;51.134;17.058;2022-07-19T03:55:55;13.50;;;7.63;;
2610;SDS011;5612;51.134;17.058;2022-07-19T03:58:25;11.57;;;7.50;;
2610;SDS011;5612;51.134;17.058;2022-07-19T04:00:55;9.63;;;6.77;;
2610;SDS011;5612;51.134;17.058;2022-07-19T04:03:24;7.63;;;6.53;;
2610;SDS011;5612;51.134;17.058;2022-07-19T04:05:54;11.20;;;7.50;;
2610;SDS011;5612;51.134;17.058;2022-07-19T04:08:25;7.53;;;6.00;;
2610;SDS011;5612;51.134;17.058;2022-07-19T04:11:00;7.83;;;6.40;;
2610;SDS011;5612;51.134;17.058;2022-07-19T04:13:32;9.30;;;6.90;;
2610;SDS011;5612;51.134;17.058;2022-07-19T04:16:02;12.37;;;7.10;;
2610;SDS011;5612;51.134;17.058;2022-07-19T04:18:33;12.60;;;7.30;;
2610;SDS011;5612;51.134;17.058;2022-07-19T04:21:02;10.30;;;6.73;;
2610;SDS011;5612;51.134;17.058;2022-07-19T04:23:33;7.47;;;6.40;;
2610;SDS011;5612;51.134;17.058;2022-07-19T04:26:03;7.67;;;6.60;;
2610;SDS011;5612;51.134;17.058;2022-07-19T04:28:33;11.00;;;7.00;;
2610;SDS011;5612;51.134;17.058;2022-07-19T04:31:02;7.90;;;6.80;;
2610;SDS011;5612;51.134;17.058;2022-07-19T04:33:33;10.37;;;7.10;;
2610;SDS011;5612;51.134;17.058;2022-07-19T04:36:02;9.10;;;7.60;;
2610;SDS011;5612;51.134;17.058;2022-07-19T04:38:34;11.60;;;7.10;;
2610;SDS011;5612;51.134;17.058;2022-07-19T04:41:04;8.03;;;6.60;;
2610;SDS011;5612;51.134;17.058;2022-07-19T04:43:33;8.67;;;6.90;;
2610;SDS011;5612;51.134;17.058;2022-07-19T04:46:02;9.40;;;7.70;;
2610;SDS011;5612;51.134;17.058;2022-07-19T04:48:32;8.10;;;7.10;;
2610;SDS011;5612;51.134;17.058;2022-07-19T04:51:01;7.53;;;6.60;;
2610;SDS011;5612;51.134;17.058;2022-07-19T04:53:31;8.07;;;7.23;;
2610;SDS011;5612;51.134;17.058;2022-07-19T04:56:07;8.37;;;6.53;;
2610;SDS011;5612;51.134;17.058;2022-07-19T04:58:36;9.33;;;6.57;;
2610;SDS011;5612;51.134;17.058;2022-07-19T05:01:06;8.57;;;7.00;;
2610;SDS011;5612;51.134;17.058;2022-07-19T05:03:35;9.20;;;5.63;;
2610;SDS011;5612;51.134;17.058;2022-07-19T05:06:04;8.47;;;6.13;;
2610;SDS011;5612;51.134;17.058;2022-07-19T05:08:34;9.53;;;6.00;;
2610;SDS011;5612;51.134;17.058;2022-07-19T05:11:03;9.77;;;6.87;;
2610;SDS011;5612;51.134;17.058;2022-07-19T05:13:35;9.77;;;7.50;;
2610;SDS011;5612;51.134;17.058;2022-07-19T05:16:05;8.57;;;6.73;;
2610;SDS011;5612;51.134;17.058;2022-07-19T05:18:35;8.00;;;5.93;;
2610;SDS011;5612;51.134;17.058;2022-07-19T05:21:04;14.80;;;6.70;;
2610;SDS011;5612;51.134;17.058;2022-07-19T05:23:34;6.90;;;6.07;;
2610;SDS011;5612;51.134;17.058;2022-07-19T05:26:03;12.17;;;6.47;;
2610;SDS011;5612;51.134;17.058;2022-07-19T05:28:33;9.50;;;5.73;;
2610;SDS011;5612;51.134;17.058;2022-07-19T05:31:04;5.80;;;5.07;;
2610;SDS011;5612;51.134;17.058;2022-07-19T05:33:34;5.17;;;4.67;;
2610;SDS011;5612;51.134;17.058;2022-07-19T05:36:03;6.77;;;4.90;;
2610;SDS011;5612;51.134;17.058;2022-07-19T05:38:37;7.53;;;5.40;;
2610;SDS011;5612;51.134;17.058;2022-07-19T05:41:07;6.70;;;5.23;;
2610;SDS011;5612;51.134;17.058;2022-07-19T05:43:39;10.20;;;5.27;;
2610;SDS011;5612;51.134;17.058;2022-07-19T05:46:09;11.17;;;5.13;;
2610;SDS011;5612;51.134;17.058;2022-07-19T05:48:38;5.53;;;4.43;;
2610;SDS011;5612;51.134;17.058;2022-07-19T05:51:07;16.10;;;5.97;;
2610;SDS011;5612;51.134;17.058;2022-07-19T05:53:37;7.23;;;5.40;;
2610;SDS011;5612;51.134;17.058;2022-07-19T05:56:06;7.00;;;4.90;;
2610;SDS011;5612;51.134;17.058;2022-07-19T05:58:36;9.80;;;5.50;;
2610;SDS011;5612;51.134;17.058;2022-07-19T06:01:07;8.60;;;6.37;;
2610;SDS011;5612;51.134;17.058;2022-07-19T06:03:50;9.53;;;5.70;;
2610;SDS011;5612;51.134;17.058;2022-07-19T06:06:25;14.77;;;6.20;;
2610;SDS011;5612;51.134;17.058;2022-07-19T06:08:55;14.07;;;5.67;;
2610;SDS011;5612;51.134;17.058;2022-07-19T06:11:26;7.70;;;5.40;;
2610;SDS011;5612;51.134;17.058;2022-07-19T06:13:56;4.87;;;4.47;;
2610;SDS011;5612;51.134;17.058;2022-07-19T06:16:27;10.07;;;4.77;;
2610;SDS011;5612;51.134;17.058;2022-07-19T06:18:57;5.70;;;4.67;;
2610;SDS011;5612;51.134;17.058;2022-07-19T06:21:27;6.40;;;4.10;;
2610;SDS011;5612;51.134;17.058;2022-07-19T06:23:56;8.77;;;4.50;;
2610;SDS011;5612;51.134;17.058;2022-07-19T06:26:26;5.57;;;4.50;;
2610;SDS011;5612;51.134;17.058;2022-07-19T06:28:56;5.70;;;3.83;;
2610;SDS011;5612;51.134;17.058;2022-07-19T06:31:26;5.90;;;4.20;;
2610;SDS011;5612;51.134;17.058;2022-07-19T06:33:56;6.03;;;3.07;;
2610;SDS011;5612;51.134;17.058;2022-07-19T06:36:25;4.13;;;3.60;;
2610;SDS011;5612;51.134;17.058;2022-07-19T06:38:55;5.60;;;4.07;;
2610;SDS011;5612;51.134;17.058;2022-07-19T06:41:24;5.17;;;2.80;;
2610;SDS011;5612;51.134;17.058;2022-07-19T06:43:56;4.07;;;3.67;;
2610;SDS011;5612;51.134;17.058;2022-07-19T06:46:27;7.50;;;3.53;;
2610;SDS011;5612;51.134;17.058;2022-07-19T06:48:57;7.10;;;3.60;;
2610;SDS011;5612;51.134;17.058;2022-07-19T06:51:26;6.80;;;2.97;;
2610;SDS011;5612;51.134;17.058;2022-07-19T06:53:55;4.97;;;2.93;;
2610;SDS011;5612;51.134;17.058;2022-07-19T06:56:26;10.00;;;3.73;;
2610;SDS011;5612;51.134;17.058;2022-07-19T06:58:56;6.10;;;3.10;;
2610;SDS011;5612;51.134;17.058;2022-07-19T07:01:27;9.70;;;3.17;;
2610;SDS011;5612;51.134;17.058;2022-07-19T07:03:56;4.93;;;2.90;;
2610;SDS011;5612;51.134;17.058;2022-07-19T07:06:25;2.33;;;2.13;;
2610;SDS011;5612;51.134;17.058;2022-07-19T07:08:55;3.90;;;2.47;;
2610;SDS011;5612;51.134;17.058;2022-07-19T07:11:24;3.13;;;2.83;;
2610;SDS011;5612;51.134;17.058;2022-07-19T07:13:53;5.33;;;2.57;;
2610;SDS011;5612;51.134;17.058;2022-07-19T07:16:23;8.60;;;3.30;;
2610;SDS011;5612;51.134;17.058;2022-07-19T07:18:54;3.23;;;2.57;;
2610;SDS011;5612;51.134;17.058;2022-07-19T07:21:24;3.00;;;2.63;;
2610;SDS011;5612;51.134;17.058;2022-07-19T07:23:53;3.72;;;2.50;;
2610;SDS011;5612;51.134;17.058;2022-07-19T07:26:23;4.75;;;2.80;;
2610;SDS011;5612;51.134;17.058;2022-07-19T07:28:52;35.35;;;6.35;;
2610;SDS011;5612;51.134;17.058;2022-07-19T07:31:22;5.22;;;2.80;;
2610;SDS011;5612;51.134;17.058;2022-07-19T07:33:51;5.53;;;2.55;;
2610;SDS011;5612;51.134;17.058;2022-07-19T07:36:22;2.92;;;2.65;;
2610;SDS011;5612;51.134;17.058;2022-07-19T07:38:51;5.13;;;2.40;;
2610;SDS011;5612;51.134;17.058;2022-07-19T07:41:21;3.03;;;2.28;;
2610;SDS011;5612;51.134;17.058;2022-07-19T07:44:10;2.50;;;2.30;;
2610;SDS011;5612;51.134;17.058;2022-07-19T07:46:39;5.57;;;2.40;;
2610;SDS011;5612;51.134;17.058;2022-07-19T07:49:10;4.78;;;2.65;;
2610;SDS011;5612;51.134;17.058;2022-07-19T07:51:39;6.05;;;3.75;;
2610;SDS011;5612;51.134;17.058;2022-07-19T07:54:11;2.72;;;2.53;;
2610;SDS011;5612;51.134;17.058;2022-07-19T07:56:42;5.07;;;4.60;;
2610;SDS011;5612;51.134;17.058;2022-07-19T07:59:12;4.07;;;2.40;;
2610;SDS011;5612;51.134;17.058;2022-07-19T08:01:42;2.42;;;2.03;;
2610;SDS011;5612;51.134;17.058;2022-07-19T08:04:19;5.45;;;2.80;;
2610;SDS011;5612;51.134;17.058;2022-07-19T08:06:48;2.40;;;2.20;;
2610;SDS011;5612;51.134;17.058;2022-07-19T08:09:17;3.70;;;2.38;;
2610;SDS011;5612;51.134;17.058;2022-07-19T08:11:47;5.15;;;2.58;;
2610;SDS011;5612;51.134;17.058;2022-07-19T08:14:16;2.72;;;2.00;;
2610;SDS011;5612;51.134;17.058;2022-07-19T08:16:45;3.85;;;2.22;;
2610;SDS011;5612;51.134;17.058;2022-07-19T08:19:15;2.50;;;2.03;;
2610;SDS011;5612;51.134;17.058;2022-07-19T08:21:46;2.55;;;1.70;;
2610;SDS011;5612;51.134;17.058;2022-07-19T08:24:16;3.13;;;1.90;;
2610;SDS011;5612;51.134;17.058;2022-07-19T08:26:45;2.72;;;2.28;;
2610;SDS011;5612;51.134;17.058;2022-07-19T08:29:14;3.88;;;2.03;;
2610;SDS011;5612;51.134;17.058;2022-07-19T08:31:44;2.08;;;1.88;;
2610;SDS011;5612;51.134;17.058;2022-07-19T08:34:13;1.60;;;1.50;;
2610;SDS011;5612;51.134;17.058;2022-07-19T08:36:42;2.40;;;1.60;;
2610;SDS011;5612;51.134;17.058;2022-07-19T08:39:14;2.78;;;1.55;;
2610;SDS011;5612;51.134;17.058;2022-07-19T08:41:44;2.25;;;2.08;;
2610;SDS011;5612;51.134;17.058;2022-07-19T08:44:15;3.22;;;1.95;;
2610;SDS011;5612;51.134;17.058;2022-07-19T08:46:46;3.20;;;1.67;;
2610;SDS011;5612;51.134;17.058;2022-07-19T08:49:16;2.63;;;1.70;;
2610;SDS011;5612;51.134;17.058;2022-07-19T08:51:47;2.20;;;1.65;;
2610;SDS011;5612;51.134;17.058;2022-07-19T08:54:19;4.05;;;1.95;;
2610;SDS011;5612;51.134;17.058;2022-07-19T08:56:48;1.98;;;1.85;;
2610;SDS011;5612;51.134;17.058;2022-07-19T08:59:35;2.13;;;1.65;;
2610;SDS011;5612;51.134;17.058;2022-07-19T09:02:04;4.05;;;1.70;;
2610;SDS011;5612;51.134;17.058;2022-07-19T09:04:34;1.92;;;1.70;;
2610;SDS011;5612;51.134;17.058;2022-07-19T09:07:03;2.00;;;1.80;;
2610;SDS011;5612;51.134;17.058;2022-07-19T09:09:34;7.60;;;1.88;;
2610;SDS011;5612;51.134;17.058;2022-07-19T09:12:04;3.08;;;2.03;;
2610;SDS011;5612;51.134;17.058;2022-07-19T09:14:35;1.88;;;1.75;;
2610;SDS011;5612;51.134;17.058;2022-07-19T09:17:08;2.25;;;1.90;;
2610;SDS011;5612;51.134;17.058;2022-07-19T09:19:45;2.53;;;1.77;;
2610;SDS011;5612;51.134;17.058;2022-07-19T09:22:17;2.03;;;1.65;;
2610;SDS011;5612;51.134;17.058;2022-07-19T09:24:51;2.75;;;1.98;;
2610;SDS011;5612;51.134;17.058;2022-07-19T09:27:21;1.98;;;1.50;;
2610;SDS011;5612;51.134;17.058;2022-07-19T09:29:53;2.65;;;2.25;;
2610;SDS011;5612;51.134;17.058;2022-07-19T09:32:23;2.00;;;1.80;;
2610;SDS011;5612;51.134;17.058;2022-07-19T09:34:54;4.07;;;1.80;;
2610;SDS011;5612;51.134;17.058;2022-07-19T09:37:25;2.30;;;2.10;;
2610;SDS011;5612;51.134;17.058;2022-07-19T09:39:58;4.45;;;2.90;;
2610;SDS011;5612;51.134;17.058;2022-07-19T09:42:34;5.13;;;2.15;;
2610;SDS011;5612;51.134;17.058;2022-07-19T09:45:06;2.30;;;1.80;;
2610;SDS011;5612;51.134;17.058;2022-07-19T09:47:38;3.80;;;2.20;;
2610;SDS011;5612;51.134;17.058;2022-07-19T09:50:10;3.55;;;1.90;;
2610;SDS011;5612;51.134;17.058;2022-07-19T09:52:42;2.10;;;1.80;;
2610;SDS011;5612;51.134;17.058;2022-07-19T09:55:18;1.98;;;1.70;;
2610;SDS011;5612;51.134;17.058;2022-07-19T09:57:48;2.72;;;2.53;;
2610;SDS011;5612;51.134;17.058;2022-07-19T10:00:19;2.42;;;2.28;;
2610;SDS011;5612;51.134;17.058;2022-07-19T10:02:50;2.78;;;2.58;;
2610;SDS011;5612;51.134;17.058;2022-07-19T10:05:21;7.65;;;2.78;;
2610;SDS011;5612;51.134;17.058;2022-07-19T10:07:52;2.67;;;2.47;;
2610;SDS011;5612;51.134;17.058;2022-07-19T10:10:24;3.35;;;2.40;;
2610;SDS011;5612;51.134;17.058;2022-07-19T10:12:58;2.53;;;2.05;;
2610;SDS011;5612;51.134;17.058;2022-07-19T10:15:31;2.45;;;2.25;;
2610;SDS011;5612;51.134;17.058;2022-07-19T10:18:10;2.33;;;2.00;;
2610;SDS011;5612;51.134;17.058;2022-07-19T10:20:42;2.00;;;1.90;;
2610;SDS011;5612;51.134;17.058;2022-07-19T10:23:14;2.25;;;2.10;;
2610;SDS011;5612;51.134;17.058;2022-07-19T10:25:47;2.25;;;2.15;;
2610;SDS011;5612;51.134;17.058;2022-07-19T10:28:26;2.17;;;1.90;;
2610;SDS011;5612;51.134;17.058;2022-07-19T10:31:25;2.35;;;2.25;;
2610;SDS011;5612;51.134;17.058;2022-07-19T10:33:59;1.95;;;1.85;;
2610;SDS011;5612;51.134;17.058;2022-07-19T10:36:33;2.92;;;2.20;;
2610;SDS011;5612;51.134;17.058;2022-07-19T10:42:09;2.38;;;2.28;;
2610;SDS011;5612;51.134;17.058;2022-07-19T10:48:00;4.00;;;1.92;;
2610;SDS011;5612;51.134;17.058;2022-07-19T10:50:47;2.17;;;1.98;;
2610;SDS011;5612;51.134;17.058;2022-07-19T10:56:28;3.42;;;2.10;;
2610;SDS011;5612;51.134;17.058;2022-07-19T10:59:12;4.43;;;2.60;;
2610;SDS011;5612;51.134;17.058;2022-07-19T11:01:53;1.77;;;1.67;;
2610;SDS011;5612;51.134;17.058;2022-07-19T11:04:44;2.85;;;2.05;;
2610;SDS011;5612;51.134;17.058;2022-07-19T11:07:15;2.63;;;1.75;;
2610;SDS011;5612;51.134;17.058;2022-07-19T11:09:49;2.55;;;2.35;;
2610;SDS011;5612;51.134;17.058;2022-07-19T11:12:30;2.45;;;2.10;;
2610;SDS011;5612;51.134;17.058;2022-07-19T11:15:08;3.70;;;2.20;;
2610;SDS011;5612;51.134;17.058;2022-07-19T11:17:58;1.83;;;1.73;;
2610;SDS011;5612;51.134;17.058;2022-07-19T11:20:29;4.53;;;1.80;;
2610;SDS011;5612;51.134;17.058;2022-07-19T11:23:00;2.03;;;1.92;;
2610;SDS011;5612;51.134;17.058;2022-07-19T11:25:32;3.72;;;2.00;;
2610;SDS011;5612;51.134;17.058;2022-07-19T11:28:03;2.05;;;1.85;;
2610;SDS011;5612;51.134;17.058;2022-07-19T11:30:34;3.17;;;2.00;;
2610;SDS011;5612;51.134;17.058;2022-07-19T11:33:05;2.58;;;2.38;;
2610;SDS011;5612;51.134;17.058;2022-07-19T11:35:52;2.13;;;1.80;;
2610;SDS011;5612;51.134;17.058;2022-07-19T11:38:22;1.95;;;1.85;;
2610;SDS011;5612;51.134;17.058;2022-07-19T11:40:52;2.38;;;2.22;;
2610;SDS011;5612;51.134;17.058;2022-07-19T11:43:21;2.50;;;2.35;;
2610;SDS011;5612;51.134;17.058;2022-07-19T11:45:52;1.95;;;1.85;;
2610;SDS011;5612;51.134;17.058;2022-07-19T11:48:25;3.80;;;1.80;;
2610;SDS011;5612;51.134;17.058;2022-07-19T11:50:57;2.15;;;2.05;;
2610;SDS011;5612;51.134;17.058;2022-07-19T11:53:28;5.40;;;2.20;;
2610;SDS011;5612;51.134;17.058;2022-07-19T11:55:57;2.63;;;2.42;;
2610;SDS011;5612;51.134;17.058;2022-07-19T11:58:28;2.13;;;1.90;;
2610;SDS011;5612;51.134;17.058;2022-07-19T12:01:03;2.38;;;2.17;;
2610;SDS011;5612;51.134;17.058;2022-07-19T12:03:34;1.92;;;1.80;;
2610;SDS011;5612;51.134;17.058;2022-07-19T12:06:06;2.08;;;1.98;;
2610;SDS011;5612;51.134;17.058;2022-07-19T12:08:38;3.25;;;1.83;;
2610;SDS011;5612;51.134;17.058;2022-07-19T12:11:15;5.20;;;1.98;;
2610;SDS011;5612;51.134;17.058;2022-07-19T12:13:50;1.70;;;1.70;;
2610;SDS011;5612;51.134;17.058;2022-07-19T12:16:24;1.83;;;1.73;;
2610;SDS011;5612;51.134;17.058;2022-07-19T12:18:54;3.47;;;1.85;;
2610;SDS011;5612;51.134;17.058;2022-07-19T12:21:26;2.00;;;1.90;;
2610;SDS011;5612;51.134;17.058;2022-07-19T12:24:10;3.78;;;2.30;;
2610;SDS011;5612;51.134;17.058;2022-07-19T12:26:54;2.90;;;1.98;;
2610;SDS011;5612;51.134;17.058;2022-07-19T12:29:27;2.25;;;2.05;;
2610;SDS011;5612;51.134;17.058;2022-07-19T12:32:01;2.05;;;1.95;;
2610;SDS011;5612;51.134;17.058;2022-07-19T12:34:42;1.73;;;1.63;;
2610;SDS011;5612;51.134;17.058;2022-07-19T12:37:17;2.15;;;1.63;;
2610;SDS011;5612;51.134;17.058;2022-07-19T12:39:58;1.60;;;1.50;;
2610;SDS011;5612;51.134;17.058;2022-07-19T12:42:41;1.95;;;1.73;;
2610;SDS011;5612;51.134;17.058;2022-07-19T12:45:12;3.72;;;3.42;;
2610;SDS011;5612;51.134;17.058;2022-07-19T12:47:45;2.03;;;1.80;;
2610;SDS011;5612;51.134;17.058;2022-07-19T12:50:19;4.05;;;1.90;;
2610;SDS011;5612;51.134;17.058;2022-07-19T12:52:52;2.17;;;2.08;;
2610;SDS011;5612;51.134;17.058;2022-07-19T12:55:23;2.00;;;1.90;;
2610;SDS011;5612;51.134;17.058;2022-07-19T12:57:54;1.90;;;1.80;;
2610;SDS011;5612;51.134;17.058;2022-07-19T13:00:26;1.70;;;1.60;;
2610;SDS011;5612;51.134;17.058;2022-07-19T13:02:59;1.70;;;1.60;;
2610;SDS011;5612;51.134;17.058;2022-07-19T13:05:30;1.77;;;1.67;;
2610;SDS011;5612;51.134;17.058;2022-07-19T13:08:01;2.35;;;2.15;;
2610;SDS011;5612;51.134;17.058;2022-07-19T13:10:31;1.85;;;1.60;;
2610;SDS011;5612;51.134;17.058;2022-07-19T13:13:00;2.15;;;2.05;;
2610;SDS011;5612;51.134;17.058;2022-07-19T13:15:32;2.60;;;2.30;;
2610;SDS011;5612;51.134;17.058;2022-07-19T13:18:03;1.50;;;1.50;;
2610;SDS011;5612;51.134;17.058;2022-07-19T13:20:32;3.65;;;1.92;;
2610;SDS011;5612;51.134;17.058;2022-07-19T13:23:02;1.60;;;1.50;;
2610;SDS011;5612;51.134;17.058;2022-07-19T13:25:32;2.30;;;2.10;;
2610;SDS011;5612;51.134;17.058;2022-07-19T13:28:11;1.73;;;1.63;;
2610;SDS011;5612;51.134;17.058;2022-07-19T13:30:41;1.65;;;1.55;;
2610;SDS011;5612;51.134;17.058;2022-07-19T13:33:12;2.15;;;2.05;;
2610;SDS011;5612;51.134;17.058;2022-07-19T13:35:41;2.10;;;2.00;;
2610;SDS011;5612;51.134;17.058;2022-07-19T13:38:11;1.90;;;1.80;;
2610;SDS011;5612;51.134;17.058;2022-07-19T13:40:40;6.40;;;2.10;;
2610;SDS011;5612;51.134;17.058;2022-07-19T13:43:10;2.35;;;2.05;;
2610;SDS011;5612;51.134;17.058;2022-07-19T13:45:40;1.90;;;1.80;;
2610;SDS011;5612;51.134;17.058;2022-07-19T13:48:12;2.13;;;1.63;;
2610;SDS011;5612;51.134;17.058;2022-07-19T13:50:41;2.10;;;2.00;;
2610;SDS011;5612;51.134;17.058;2022-07-19T13:53:11;1.77;;;1.67;;
2610;SDS011;5612;51.134;17.058;2022-07-19T13:55:40;2.03;;;1.92;;
2610;SDS011;5612;51.134;17.058;2022-07-19T13:58:10;2.25;;;1.73;;
2610;SDS011;5612;51.134;17.058;2022-07-19T14:00:39;2.33;;;2.13;;
2610;SDS011;5612;51.134;17.058;2022-07-19T14:03:15;2.90;;;2.22;;
2610;SDS011;5612;51.134;17.058;2022-07-19T14:05:45;3.13;;;2.00;;
2610;SDS011;5612;51.134;17.058;2022-07-19T14:08:15;2.20;;;2.10;;
2610;SDS011;5612;51.134;17.058;2022-07-19T14:10:45;4.25;;;2.58;;
2610;SDS011;5612;51.134;17.058;2022-07-19T14:13:15;3.25;;;3.05;;
2610;SDS011;5612;51.134;17.058;2022-07-19T14:16:01;1.88;;;1.77;;
2610;SDS011;5612;51.134;17.058;2022-07-19T14:18:34;3.28;;;2.97;;
2610;SDS011;5612;51.134;17.058;2022-07-19T14:21:04;5.28;;;3.05;;
2610;SDS011;5612;51.134;17.058;2022-07-19T14:23:33;2.20;;;2.10;;
2610;SDS011;5612;51.134;17.058;2022-07-19T14:26:02;5.10;;;3.42;;
2610;SDS011;5612;51.134;17.058;2022-07-19T14:28:32;2.47;;;2.28;;
2610;SDS011;5612;51.134;17.058;2022-07-19T14:31:01;2.53;;;2.33;;
2610;SDS011;5612;51.134;17.058;2022-07-19T14:33:31;7.57;;;2.72;;
2610;SDS011;5612;51.134;17.058;2022-07-19T14:36:03;2.60;;;2.40;;
2610;SDS011;5612;51.134;17.058;2022-07-19T14:38:34;2.63;;;2.42;;
2610;SDS011;5612;51.134;17.058;2022-07-19T14:41:03;2.92;;;2.72;;
2610;SDS011;5612;51.134;17.058;2022-07-19T14:43:34;2.75;;;2.17;;
2610;SDS011;5612;51.134;17.058;2022-07-19T14:46:04;2.75;;;2.35;;
2610;SDS011;5612;51.134;17.058;2022-07-19T14:48:36;2.95;;;2.75;;
2610;SDS011;5612;51.134;17.058;2022-07-19T14:51:06;2.53;;;2.25;;
2610;SDS011;5612;51.134;17.058;2022-07-19T14:53:35;3.25;;;2.58;;
2610;SDS011;5612;51.134;17.058;2022-07-19T14:56:05;6.28;;;2.60;;
2610;SDS011;5612;51.134;17.058;2022-07-19T14:58:35;2.42;;;2.22;;
2610;SDS011;5612;51.134;17.058;2022-07-19T15:01:04;3.00;;;2.20;;
2610;SDS011;5612;51.134;17.058;2022-07-19T15:03:36;1.95;;;1.85;;
2610;SDS011;5612;51.134;17.058;2022-07-19T15:06:06;2.10;;;2.00;;
2610;SDS011;5612;51.134;17.058;2022-07-19T15:08:35;2.60;;;2.17;;
2610;SDS011;5612;51.134;17.058;2022-07-19T15:11:04;2.10;;;2.00;;
2610;SDS011;5612;51.134;17.058;2022-07-19T15:13:36;2.42;;;2.22;;
2610;SDS011;5612;51.134;17.058;2022-07-19T15:16:05;2.30;;;2.20;;
2610;SDS011;5612;51.134;17.058;2022-07-19T15:18:37;2.60;;;2.40;;
2610;SDS011;5612;51.134;17.058;2022-07-19T15:21:06;3.35;;;2.85;;
2610;SDS011;5612;51.134;17.058;2022-07-19T15:23:36;3.30;;;2.97;;
2610;SDS011;5612;51.134;17.058;2022-07-19T15:26:08;2.58;;;2.00;;
2610;SDS011;5612;51.134;17.058;2022-07-19T15:28:38;3.55;;;3.03;;
2610;SDS011;5612;51.134;17.058;2022-07-19T15:31:08;2.53;;;2.35;;
2610;SDS011;5612;51.134;17.058;2022-07-19T15:33:39;2.72;;;2.53;;